createdAt,value
2018-04-17T00:01:33.319Z,93845.41
2018-04-17T00:04:00.863Z,93843.98
2018-04-17T00:06:28.418Z,93840.97
2018-04-17T00:08:56.137Z,93844.67
2018-04-17T00:11:23.664Z,93839.97
2018-04-17T00:13:51.199Z,93842.34
2018-04-17T00:16:19.010Z,93838.97
2018-04-17T00:18:46.561Z,93841.90
2018-04-17T00:21:14.111Z,93842.69
2018-04-17T00:23:41.691Z,93846.45
2018-04-17T00:26:09.239Z,93853.38
2018-04-17T00:28:36.794Z,93854.98
2018-04-17T00:31:04.376Z,93849.48
2018-04-17T00:33:31.944Z,93847.80
2018-04-17T00:35:59.491Z,93841.48
2018-04-17T00:38:27.105Z,93834.73
2018-04-17T00:40:54.666Z,93832.91
2018-04-17T00:43:22.211Z,93839.49
2018-04-17T00:45:50.024Z,93837.49
2018-04-17T00:48:17.566Z,93832.04
2018-04-17T00:50:45.123Z,93822.73
2018-04-17T00:53:24.667Z,93834.07
2018-04-17T00:55:52.218Z,93830.28
2018-04-17T00:58:19.768Z,93821.41
2018-04-17T01:00:47.368Z,93819.30
2018-04-17T01:03:14.910Z,93820.91
2018-04-17T01:05:42.447Z,93819.72
2018-04-17T01:08:10.160Z,93815.62
2018-04-17T01:10:37.701Z,93818.07
2018-04-17T01:13:05.253Z,93822.36
2018-04-17T01:15:32.843Z,93822.98
2018-04-17T01:18:00.388Z,93829.18
2018-04-17T01:20:27.918Z,93831.80
2018-04-17T01:22:55.632Z,93831.81
2018-04-17T01:25:23.181Z,93827.73
2018-04-17T01:27:50.732Z,93829.61
2018-04-17T01:30:18.295Z,93829.58
2018-04-17T01:32:45.844Z,93826.90
2018-04-17T01:35:14.065Z,93828.75
2018-04-17T01:37:41.668Z,93832.80
2018-04-17T01:40:09.215Z,93823.73
2018-04-17T01:42:36.776Z,93820.09
2018-04-17T01:45:04.482Z,93830.31
2018-04-17T01:47:32.032Z,93837.41
2018-04-17T01:49:59.594Z,93824.53
2018-04-17T01:52:27.157Z,93814.73
2018-04-17T01:54:54.711Z,93807.88
2018-04-17T01:57:22.258Z,93798.20
2018-04-17T01:59:49.857Z,93795.86
2018-04-17T02:02:17.407Z,93788.58
2018-04-17T02:04:44.959Z,93781.59
2018-04-17T02:07:12.674Z,93779.16
2018-04-17T02:09:40.222Z,93785.05
2018-04-17T02:12:07.763Z,93787.70
2018-04-17T02:14:35.359Z,93785.59
2018-04-17T02:17:02.913Z,93791.53
2018-04-17T02:19:30.460Z,93785.78
2018-04-17T02:21:58.059Z,93775.52
2018-04-17T02:24:25.600Z,93780.02
2018-04-17T02:26:53.149Z,93785.82
2018-04-17T02:29:20.713Z,93794.09
2018-04-17T02:31:48.263Z,93787.78
2018-04-17T02:34:15.867Z,93790.89
2018-04-17T02:36:43.419Z,93790.13
2018-04-17T02:39:10.963Z,93784.12
2018-04-17T02:41:38.556Z,93796.01
2018-04-17T02:44:06.119Z,93789.30
2018-04-17T02:46:33.667Z,93789.75
2018-04-17T02:49:01.539Z,93780.45
2018-04-17T02:51:29.091Z,93792.90
2018-04-17T02:53:56.636Z,93793.98
2018-04-17T02:56:24.325Z,93790.14
2018-04-17T02:58:51.872Z,93789.40
2018-04-17T03:01:19.416Z,93794.22
2018-04-17T03:03:46.991Z,93792.11
2018-04-17T03:06:14.548Z,93791.36
2018-04-17T03:08:42.107Z,93794.14
2018-04-17T03:11:09.676Z,93792.51
2018-04-17T03:13:37.223Z,93787.22
2018-04-17T03:16:04.768Z,93778.78
2018-04-17T03:18:32.342Z,93779.72
2018-04-17T03:20:59.892Z,93790.75
2018-04-17T03:23:27.437Z,93775.70
2018-04-17T03:25:55.197Z,93781.82
2018-04-17T03:28:22.776Z,93790.08
2018-04-17T03:30:50.317Z,93792.23
2018-04-17T03:33:17.893Z,93795.19
2018-04-17T03:35:45.448Z,93787.16
2018-04-17T03:38:12.992Z,93792.17
2018-04-17T03:40:40.769Z,93788.80
2018-04-17T03:43:08.312Z,93787.06
2018-04-17T03:45:35.869Z,93785.33
2018-04-17T03:48:03.447Z,93787.80
2018-04-17T03:50:30.988Z,93784.03
2018-04-17T03:52:58.541Z,93786.91
2018-04-17T03:55:26.267Z,93796.88
2018-04-17T03:57:53.838Z,93809.25
2018-04-17T04:00:21.417Z,93808.76
2018-04-17T04:02:49.007Z,93814.02
2018-04-17T04:05:16.568Z,93820.87
2018-04-17T04:07:44.125Z,93833.77
2018-04-17T04:10:11.845Z,93834.69
2018-04-17T04:12:39.392Z,93834.19
2018-04-17T04:15:06.965Z,93828.56
2018-04-17T04:17:46.540Z,93833.44
2018-04-17T04:20:27.136Z,93837.45
2018-04-17T04:23:06.341Z,93846.17
2018-04-17T04:28:45.413Z,93834.73
2018-04-17T04:31:12.961Z,93842.11
2018-04-17T04:33:40.524Z,93855.26
2018-04-17T04:36:08.079Z,93863.71
2018-04-17T04:38:35.636Z,93858.45
2018-04-17T04:41:03.221Z,93857.69
2018-04-17T04:43:30.771Z,93867.88
2018-04-17T04:45:58.364Z,93874.42
2018-04-17T04:48:26.087Z,93876.28
2018-04-17T04:50:53.673Z,93869.34
2018-04-17T04:53:21.215Z,93880.67
2018-04-17T04:55:48.994Z,93891.11
2018-04-17T04:58:16.534Z,93894.94
2018-04-17T05:00:44.092Z,93883.36
2018-04-17T05:03:11.824Z,93883.39
2018-04-17T05:05:39.381Z,93884.12
2018-04-17T05:08:06.931Z,93892.86
2018-04-17T05:10:34.808Z,93892.41
2018-04-17T05:13:02.362Z,93901.80
2018-04-17T05:15:29.912Z,93896.52
2018-04-17T05:17:57.515Z,93901.89
2018-04-17T05:20:25.080Z,93901.30
2018-04-17T05:22:52.633Z,93896.13
2018-04-17T05:25:20.372Z,93899.14
2018-04-17T05:27:47.933Z,93900.30
2018-04-17T05:30:15.503Z,93904.16
2018-04-17T05:32:43.183Z,93902.23
2018-04-17T05:35:10.737Z,93893.19
2018-04-17T05:37:38.282Z,93889.39
2018-04-17T05:40:07.114Z,93893.92
2018-04-17T05:42:34.692Z,93898.27
2018-04-17T05:45:02.236Z,93901.39
2018-04-17T05:47:29.837Z,93903.47
2018-04-17T05:49:57.391Z,93902.38
2018-04-17T05:52:24.944Z,93901.36
2018-04-17T05:54:52.643Z,93901.30
2018-04-17T05:57:20.195Z,93897.97
2018-04-17T05:59:47.740Z,93901.53
2018-04-17T06:02:15.324Z,93900.35
2018-04-17T06:04:42.873Z,93900.73
2018-04-17T06:07:10.438Z,93904.65
2018-04-17T06:09:38.038Z,93905.30
2018-04-17T06:12:05.584Z,93909.50
2018-04-17T06:14:33.148Z,93912.49
2018-04-17T06:17:00.738Z,93917.70
2018-04-17T06:19:28.294Z,93918.94
2018-04-17T06:21:55.840Z,93918.31
2018-04-17T06:24:23.440Z,93913.35
2018-04-17T06:26:50.999Z,93917.84
2018-04-17T06:29:18.545Z,93916.65
2018-04-17T06:31:46.194Z,93929.78
2018-04-17T06:34:13.745Z,93925.46
2018-04-17T06:36:41.299Z,93924.49
2018-04-17T06:39:08.864Z,93924.35
2018-04-17T06:41:36.415Z,93927.03
2018-04-17T06:44:03.995Z,93925.53
2018-04-17T06:46:31.678Z,93922.38
2018-04-17T06:48:59.245Z,93923.22
2018-04-17T06:51:26.849Z,93919.61
2018-04-17T06:53:54.513Z,93918.27
2018-04-17T06:56:22.059Z,93923.48
2018-04-17T06:58:49.637Z,93916.39
2018-04-17T07:01:17.375Z,93925.17
2018-04-17T07:03:44.929Z,93921.72
2018-04-17T07:06:12.496Z,93919.78
2018-04-17T07:08:40.096Z,93926.79
2018-04-17T07:11:07.645Z,93925.36
2018-04-17T07:13:35.213Z,93936.48
2018-04-17T07:16:02.829Z,93931.59
2018-04-17T07:18:30.372Z,93932.38
2018-04-17T07:20:57.915Z,93937.23
2018-04-17T07:23:25.480Z,93942.92
2018-04-17T07:25:53.027Z,93947.24
2018-04-17T07:28:20.582Z,93942.61
2018-04-17T07:30:48.128Z,93942.34
2018-04-17T07:34:55.737Z,93939.86
2018-04-17T07:37:23.293Z,93940.97
2018-04-17T07:42:43.942Z,93946.75
2018-04-17T07:45:11.537Z,93944.88
2018-04-17T07:47:39.123Z,93946.94
2018-04-17T07:50:07.003Z,93937.61
2018-04-17T07:52:34.561Z,93941.39
2018-04-17T07:55:02.134Z,93940.50
2018-04-17T07:57:29.873Z,93937.88
2018-04-17T07:59:57.426Z,93936.16
2018-04-17T08:02:24.975Z,93933.31
2018-04-17T08:04:52.567Z,93939.38
2018-04-17T08:07:20.111Z,93945.91
2018-04-17T08:09:47.682Z,93935.89
2018-04-17T08:12:15.272Z,93932.70
2018-04-17T08:14:42.826Z,93937.29
2018-04-17T08:17:10.392Z,93933.67
2018-04-17T08:19:37.964Z,93935.37
2018-04-17T08:22:05.517Z,93942.67
2018-04-17T08:24:33.080Z,93938.16
2018-04-17T08:27:00.941Z,93941.41
2018-04-17T08:29:28.493Z,93934.36
2018-04-17T08:31:56.039Z,93938.67
2018-04-17T08:34:23.731Z,93938.05
2018-04-17T08:36:51.289Z,93940.11
2018-04-17T08:39:18.879Z,93927.34
2018-04-17T08:41:46.601Z,93928.44
2018-04-17T08:44:14.173Z,93925.58
2018-04-17T08:46:41.725Z,93925.95
2018-04-17T08:49:09.314Z,93924.59
2018-04-17T08:51:37.798Z,93918.17
2018-04-17T08:54:05.353Z,93921.80
2018-04-17T08:56:33.199Z,93921.55
2018-04-17T08:59:00.749Z,93924.55
2018-04-17T09:01:28.299Z,93920.19
2018-04-17T09:03:56.030Z,93926.61
2018-04-17T09:06:23.579Z,93925.28
2018-04-17T09:08:51.138Z,93930.84
2018-04-17T09:11:18.789Z,93930.02
2018-04-17T09:13:46.366Z,93926.70
2018-04-17T09:16:13.927Z,93921.36
2018-04-17T09:18:41.508Z,93918.08
2018-04-17T09:21:09.060Z,93912.63
2018-04-17T09:23:36.631Z,93922.00
2018-04-17T09:26:04.549Z,93914.70
2018-04-17T09:28:32.109Z,93919.66
2018-04-17T09:30:59.673Z,93921.84
2018-04-17T09:33:27.483Z,93916.35
2018-04-17T09:35:55.047Z,93912.80
2018-04-17T09:38:22.596Z,93915.83
2018-04-17T09:40:50.218Z,93915.30
2018-04-17T09:43:17.788Z,93907.98
2018-04-17T09:45:45.346Z,93904.97
2018-04-17T09:48:13.887Z,93907.30
2018-04-17T09:50:41.445Z,93909.41
2018-04-17T09:53:08.998Z,93906.70
2018-04-17T09:55:36.608Z,93904.50
2018-04-17T09:58:04.156Z,93904.80
2018-04-17T10:00:37.472Z,93910.05
2018-04-17T10:03:05.017Z,93904.79
2018-04-17T10:05:32.570Z,93902.11
2018-04-17T10:08:00.239Z,93901.89
2018-04-17T10:10:27.771Z,93903.90
2018-04-17T10:12:55.319Z,93898.91
2018-04-17T10:15:22.900Z,93894.20
2018-04-17T10:17:50.460Z,93894.00
2018-04-17T10:20:18.030Z,93889.60
2018-04-17T10:22:45.601Z,93889.41
2018-04-17T10:25:13.152Z,93881.72
2018-04-17T10:27:40.696Z,93889.64
2018-04-17T10:30:08.238Z,93892.71
2018-04-17T10:32:35.789Z,93888.80
2018-04-17T10:35:03.557Z,93893.38
2018-04-17T10:37:31.100Z,93894.33
2018-04-17T10:39:58.649Z,93899.46
2018-04-17T10:42:26.340Z,93894.94
2018-04-17T10:44:53.888Z,93892.29
2018-04-17T10:47:21.449Z,93891.30
2018-04-17T10:49:49.041Z,93892.23
2018-04-17T10:52:16.599Z,93890.82
2018-04-17T10:54:44.149Z,93890.64
2018-04-17T10:57:11.722Z,93894.88
2018-04-17T10:59:39.275Z,93890.58
2018-04-17T11:02:06.865Z,93890.36
2018-04-17T11:04:34.457Z,93886.73
2018-04-17T11:07:02.006Z,93888.73
2018-04-17T11:09:29.551Z,93890.73
2018-04-17T11:11:57.145Z,93891.73
2018-04-17T11:14:24.688Z,93886.98
2018-04-17T11:16:52.235Z,93889.29
2018-04-17T11:19:19.836Z,93893.08
2018-04-17T11:21:47.392Z,93891.25
2018-04-17T11:24:14.991Z,93887.17
2018-04-17T11:26:42.715Z,93889.26
2018-04-17T11:29:10.320Z,93885.20
2018-04-17T11:31:37.841Z,93884.02
2018-04-17T11:34:05.416Z,93886.63
2018-04-17T11:36:32.964Z,93881.28
2018-04-17T11:39:07.228Z,93878.93
2018-04-17T11:41:34.768Z,93880.05
2018-04-17T11:44:02.318Z,93878.55
2018-04-17T11:46:30.051Z,93875.16
2018-04-17T11:48:57.596Z,93871.70
2018-04-17T11:51:25.153Z,93867.39
2018-04-17T11:53:52.840Z,93875.18
2018-04-17T11:56:20.389Z,93864.41
2018-04-17T11:58:47.936Z,93862.98
2018-04-17T12:01:15.794Z,93861.73
2018-04-17T12:03:43.342Z,93855.45
2018-04-17T12:06:10.912Z,93862.12
2018-04-17T12:08:38.800Z,93866.85
2018-04-17T12:11:06.374Z,93870.45
2018-04-17T12:13:33.945Z,93862.50
2018-04-17T12:16:01.726Z,93863.32
2018-04-17T12:18:29.269Z,93854.97
2018-04-17T12:20:56.817Z,93853.27
2018-04-17T12:23:24.408Z,93852.73
2018-04-17T12:25:52.022Z,93846.75
2018-04-17T12:28:19.535Z,93845.41
2018-04-17T12:30:47.131Z,93844.52
2018-04-17T12:33:14.681Z,93840.11
2018-04-17T12:35:42.558Z,93844.83
2018-04-17T12:38:10.115Z,93841.95
2018-04-17T12:40:37.667Z,93843.83
2018-04-17T12:43:05.261Z,93833.77
2018-04-17T12:45:32.839Z,93843.50
2018-04-17T12:48:00.383Z,93834.34
2018-04-17T12:50:28.120Z,93831.67
2018-04-17T12:52:55.706Z,93837.34
2018-04-17T12:55:23.270Z,93834.20
2018-04-17T12:57:50.843Z,93841.56
2018-04-17T13:00:18.389Z,93839.47
2018-04-17T13:02:45.940Z,93843.62
2018-04-17T13:05:13.676Z,93840.14
2018-04-17T13:07:41.247Z,93850.55
2018-04-17T13:10:08.853Z,93846.02
2018-04-17T13:12:36.424Z,93849.63
2018-04-17T13:15:03.982Z,93846.88
2018-04-17T13:17:31.541Z,93841.71
2018-04-17T13:19:59.189Z,93834.96
2018-04-17T13:22:26.745Z,93838.50
2018-04-17T13:24:54.324Z,93833.58
2018-04-17T13:27:22.036Z,93835.04
2018-04-17T13:29:49.592Z,93834.39
2018-04-17T13:32:17.150Z,93828.37
2018-04-17T13:34:44.732Z,93831.25
2018-04-17T13:37:12.298Z,93827.19
2018-04-17T13:39:39.845Z,93831.89
2018-04-17T13:42:07.449Z,93831.02
2018-04-17T13:44:34.987Z,93822.27
2018-04-17T13:47:02.539Z,93833.38
2018-04-17T13:49:30.113Z,93825.66
2018-04-17T13:51:57.657Z,93830.85
2018-04-17T13:54:25.196Z,93830.69
2018-04-17T13:56:52.825Z,93822.97
2018-04-17T13:59:20.376Z,93818.95
2018-04-17T14:01:47.954Z,93826.28
2018-04-17T14:04:15.546Z,93829.98
2018-04-17T14:06:43.097Z,93836.13
2018-04-17T14:09:10.667Z,93828.02
2018-04-17T14:11:38.364Z,93834.00
2018-04-17T14:14:05.898Z,93832.58
2018-04-17T14:16:33.436Z,93835.31
2018-04-17T14:19:01.019Z,93838.84
2018-04-17T14:21:28.588Z,93836.25
2018-04-17T14:23:56.142Z,93834.95
2018-04-17T14:26:23.708Z,93838.20
2018-04-17T14:28:51.249Z,93833.55
2018-04-17T14:31:18.807Z,93835.17
2018-04-17T14:33:46.372Z,93839.75
2018-04-17T14:36:13.937Z,93842.36
2018-04-17T14:38:41.515Z,93842.63
2018-04-17T14:41:09.086Z,93844.08
2018-04-17T14:43:36.779Z,93850.73
2018-04-17T14:46:04.349Z,93857.97
2018-04-17T14:48:31.969Z,93856.66
2018-04-17T14:50:59.554Z,93864.23
2018-04-17T14:53:27.101Z,93862.99
2018-04-17T14:55:54.846Z,93871.98
2018-04-17T14:58:22.389Z,93864.70
2018-04-17T15:00:49.940Z,93872.84
2018-04-17T15:03:17.526Z,93869.55
2018-04-17T15:05:45.126Z,93873.41
2018-04-17T15:08:13.420Z,93874.76
2018-04-17T15:10:41.006Z,93875.88
2018-04-17T15:13:08.562Z,93874.09
2018-04-17T15:15:36.114Z,93876.62
2018-04-17T15:18:03.677Z,93870.61
2018-04-17T15:20:31.237Z,93875.81
2018-04-17T15:22:58.788Z,93870.22
2018-04-17T15:25:26.682Z,93875.45
2018-04-17T15:27:54.248Z,93873.85
2018-04-17T15:30:21.801Z,93879.28
2018-04-17T15:32:49.523Z,93884.95
2018-04-17T15:35:17.094Z,93884.88
2018-04-17T15:37:44.683Z,93891.17
2018-04-17T15:40:12.273Z,93885.45
2018-04-17T15:42:39.826Z,93897.91
2018-04-17T15:45:07.394Z,93902.47
2018-04-17T15:47:35.262Z,93907.48
2018-04-17T15:50:02.844Z,93914.13
2018-04-17T15:52:30.388Z,93920.91
2018-04-17T15:54:57.979Z,93928.31
2018-04-17T15:57:25.533Z,93929.67
2018-04-17T15:59:53.092Z,93935.38
2018-04-17T16:02:20.833Z,93946.74
2018-04-17T16:04:48.377Z,93948.53
2018-04-17T16:07:15.945Z,93946.91
2018-04-17T16:09:43.983Z,93963.27
2018-04-17T16:12:11.535Z,93961.67
2018-04-17T16:14:39.166Z,93962.72
2018-04-17T16:17:06.809Z,93966.36
2018-04-17T16:19:34.405Z,93970.86
2018-04-17T16:22:01.958Z,93983.19
2018-04-17T16:24:29.768Z,93978.63
2018-04-17T16:26:57.324Z,93986.98
2018-04-17T16:29:24.886Z,93984.19
2018-04-17T16:31:52.502Z,93992.75
2018-04-17T16:34:20.100Z,93994.96
2018-04-17T16:36:47.653Z,93992.91
2018-04-17T16:39:15.313Z,93991.34
2018-04-17T16:41:42.905Z,93992.81
2018-04-17T16:44:10.473Z,93995.85
2018-04-17T16:46:38.371Z,93999.98
2018-04-17T16:49:05.971Z,94002.31
2018-04-17T16:51:33.565Z,93998.75
2018-04-17T16:54:01.307Z,94004.81
2018-04-17T16:56:28.871Z,94007.56
2018-04-17T16:58:56.449Z,94008.47
2018-04-17T17:01:24.217Z,94007.89
2018-04-17T17:03:51.795Z,94004.90
2018-04-17T17:06:19.346Z,94015.12
2018-04-17T17:08:47.117Z,94016.43
2018-04-17T17:11:14.698Z,94020.11
2018-04-17T17:13:42.283Z,94023.80
2018-04-17T17:16:10.172Z,94025.84
2018-04-17T17:18:37.743Z,94031.47
2018-04-17T17:21:05.315Z,94033.03
2018-04-17T17:23:32.921Z,94035.75
2018-04-17T17:26:00.522Z,94036.52
2018-04-17T17:28:28.159Z,94037.16
2018-04-17T17:30:55.775Z,94032.48
2018-04-17T17:33:23.378Z,94047.97
2018-04-17T17:35:50.997Z,94050.84
2018-04-17T17:38:18.612Z,94048.47
2018-04-17T17:40:46.184Z,94053.17
2018-04-17T17:43:13.860Z,94055.58
2018-04-17T17:45:41.461Z,94058.50
2018-04-17T17:48:09.033Z,94065.59
2018-04-17T17:50:36.856Z,94071.43
2018-04-17T17:53:04.493Z,94069.57
2018-04-17T17:55:32.229Z,94076.66
2018-04-17T17:57:59.884Z,94077.38
2018-04-17T18:00:27.555Z,94086.95
2018-04-17T18:02:55.133Z,94086.41
2018-04-17T18:05:22.796Z,94088.06
2018-04-17T18:07:50.413Z,94098.63
2018-04-17T18:10:17.969Z,94096.83
2018-04-17T18:12:46.376Z,94103.91
2018-04-17T18:15:13.985Z,94105.92
2018-04-17T18:17:41.616Z,94113.09
2018-04-17T18:20:09.371Z,94116.85
2018-04-17T18:22:36.987Z,94116.77
2018-04-17T18:25:04.602Z,94116.75
2018-04-17T18:27:32.560Z,94117.13
2018-04-17T18:30:00.268Z,94119.19
2018-04-17T18:32:27.892Z,94120.45
2018-04-17T18:34:55.828Z,94117.66
2018-04-17T18:37:23.446Z,94125.78
2018-04-17T18:39:51.049Z,94129.23
2018-04-17T18:42:19.040Z,94129.37
2018-04-17T18:44:46.632Z,94129.91
2018-04-17T18:47:14.234Z,94135.92
2018-04-17T18:49:42.127Z,94138.32
2018-04-17T18:52:09.747Z,94138.51
2018-04-17T18:54:37.330Z,94149.54
2018-04-17T18:57:04.999Z,94149.25
2018-04-17T18:59:32.614Z,94157.34
2018-04-17T19:02:00.195Z,94150.08
2018-04-17T19:04:27.831Z,94146.16
2018-04-17T19:06:55.432Z,94151.77
2018-04-17T19:09:22.989Z,94151.14
2018-04-17T19:11:50.602Z,94153.97
2018-04-17T19:14:18.253Z,94155.80
2018-04-17T19:16:45.839Z,94153.52
2018-04-17T19:19:13.512Z,94156.32
2018-04-17T19:21:41.133Z,94161.95
2018-04-17T19:24:08.716Z,94158.47
2018-04-17T19:26:36.453Z,94163.78
2018-04-17T19:29:04.111Z,94166.81
2018-04-17T19:31:31.724Z,94166.94
2018-04-17T19:33:59.790Z,94171.34
2018-04-17T19:36:27.412Z,94171.16
2018-04-17T19:38:55.001Z,94167.58
2018-04-17T19:41:22.645Z,94167.41
2018-04-17T19:43:50.227Z,94163.34
2018-04-17T19:46:17.795Z,94168.56
2018-04-17T19:48:45.406Z,94168.41
2018-04-17T19:51:12.982Z,94170.70
2018-04-17T19:53:40.623Z,94172.13
2018-04-17T19:56:08.539Z,94170.53
2018-04-17T19:58:36.126Z,94174.52
2018-04-17T20:01:03.713Z,94178.02
2018-04-17T20:03:31.316Z,94183.17
2018-04-17T20:05:58.905Z,94176.72
2018-04-17T20:08:26.489Z,94184.45
2018-04-17T20:10:54.106Z,94184.69
2018-04-17T20:13:21.690Z,94184.85
2018-04-17T20:15:49.267Z,94184.69
2018-04-17T20:18:17.148Z,94181.02
2018-04-17T20:20:44.759Z,94178.67
2018-04-17T20:23:12.344Z,94180.19
2018-04-17T20:25:39.955Z,94178.41
2018-04-17T20:28:07.525Z,94181.02
2018-04-17T20:30:35.078Z,94175.31
2018-04-17T20:33:02.689Z,94173.45
2018-04-17T20:35:30.263Z,94175.16
2018-04-17T20:37:57.846Z,94178.23
2018-04-17T20:40:25.441Z,94177.91
2018-04-17T20:42:53.007Z,94187.24
2018-04-17T20:45:20.591Z,94183.96
2018-04-17T20:47:48.269Z,94181.27
2018-04-17T20:50:15.851Z,94185.94
2018-04-17T20:52:43.428Z,94190.66
2018-04-17T20:55:11.357Z,94193.32
2018-04-17T20:57:38.925Z,94198.92
2018-04-17T21:00:06.520Z,94201.27
2018-04-17T21:02:34.112Z,94198.90
2018-04-17T21:05:01.676Z,94202.75
2018-04-17T21:07:29.234Z,94207.41
2018-04-17T21:09:57.124Z,94203.71
2018-04-17T21:12:24.713Z,94203.00
2018-04-17T21:14:52.315Z,94202.66
2018-04-17T21:17:20.024Z,94201.00
2018-04-17T21:19:47.578Z,94204.02
2018-04-17T21:22:15.150Z,94206.27
2018-04-17T21:24:42.801Z,94203.05
2018-04-17T21:27:10.778Z,94208.27
2018-04-17T21:29:38.329Z,94209.22
2018-04-17T21:32:05.924Z,94210.55
2018-04-17T21:34:33.480Z,94209.45
2018-04-17T21:37:01.095Z,94203.58
2018-04-17T21:39:28.702Z,94200.75
2018-04-17T21:41:56.261Z,94207.09
2018-04-17T21:44:23.836Z,94205.84
2018-04-17T21:46:51.391Z,94204.25
2018-04-17T21:49:18.950Z,94210.52
2018-04-17T21:51:46.527Z,94213.47
2018-04-17T21:54:14.073Z,94209.42
2018-04-17T21:56:41.943Z,94208.69
2018-04-17T21:59:09.618Z,94217.56
2018-04-17T22:01:37.173Z,94214.98
2018-04-17T22:04:04.721Z,94213.31
2018-04-17T22:06:32.332Z,94221.34
2018-04-17T22:08:59.881Z,94215.13
2018-04-17T22:11:27.451Z,94223.86
2018-04-17T22:13:55.032Z,94220.64
2018-04-17T22:16:22.607Z,94230.28
2018-04-17T22:18:50.147Z,94231.19
2018-04-17T22:21:17.769Z,94231.62
2018-04-17T22:23:45.347Z,94235.88
2018-04-17T22:26:12.918Z,94239.25
2018-04-17T22:28:40.535Z,94237.27
2018-04-17T22:31:08.126Z,94236.92
2018-04-17T22:33:35.710Z,94234.93
2018-04-17T22:36:03.338Z,94237.56
2018-04-17T22:38:30.968Z,94236.32
2018-04-17T22:40:58.564Z,94236.25
2018-04-17T22:43:26.280Z,94239.30
2018-04-17T22:45:53.890Z,94229.33
2018-04-17T22:48:21.924Z,94233.24
2018-04-17T22:50:49.528Z,94239.59
2018-04-17T22:53:17.112Z,94239.67
2018-04-17T22:55:44.703Z,94242.62
2018-04-17T22:58:12.835Z,94243.86
2018-04-17T23:00:40.389Z,94244.77
2018-04-17T23:03:07.960Z,94245.69
2018-04-17T23:05:35.558Z,94250.30
2018-04-17T23:08:03.110Z,94249.05
2018-04-17T23:10:30.656Z,94248.63
2018-04-17T23:12:58.417Z,94245.82
2018-04-17T23:15:25.979Z,94256.77
2018-04-17T23:17:53.539Z,94249.30
2018-04-17T23:20:21.268Z,94247.27
2018-04-17T23:22:48.819Z,94248.53
2018-04-17T23:25:16.375Z,94251.11
2018-04-17T23:27:43.951Z,94252.50
2018-04-17T23:30:11.519Z,94255.92
2018-04-17T23:32:39.063Z,94253.91
2018-04-17T23:35:06.638Z,94253.08
2018-04-17T23:37:34.185Z,94247.69
2018-04-17T23:40:01.738Z,94250.68
2018-04-17T23:42:29.388Z,94248.13
2018-04-17T23:44:56.966Z,94246.98
2018-04-17T23:47:24.517Z,94249.08
2018-04-17T23:49:52.198Z,94250.00
2018-04-17T23:52:19.769Z,94250.89
2018-04-17T23:54:47.320Z,94255.56
2018-04-17T23:57:14.890Z,94258.61
2018-04-17T23:59:42.477Z,94259.89
